Time;durP1;ratioP1;P1;durP2;ratioP2;P2;SDS_P1;SDS_P2;PMS_P1;PMS_P2;Temp;Humidity;BMP_temperature;BMP_pressure;BME280_temperature;BME280_humidity;BME280_pressure;Samples;Min_cycle;Max_cycle;Signal;HPM_P1;HPM_P2
2024/01/15 00:02:00;;;;;;;18.45;3.15;;;1.50;99.90;;;;;;7379585;19;20023;-63
2024/01/15 00:04:28;;;;;;;13.95;2.05;;;1.50;99.90;;;;;;7377807;19;20037;-64
2024/01/15 00:06:54;;;;;;;13.68;2.40;;;1.50;99.90;;;;;;7377462;19;20478;-63
2024/01/15 00:09:20;;;;;;;12.52;2.30;;;1.50;99.90;;;;;;7376903;19;20522;-63
2024/01/15 00:11:46;;;;;;;17.17;2.92;;;1.50;99.90;;;;;;7380179;19;20392;-63
2024/01/15 00:14:14;;;;;;;17.85;4.05;;;1.40;99.90;;;;;;7379567;19;20028;-63
2024/01/15 00:16:41;;;;;;;17.45;2.97;;;1.50;99.90;;;;;;7381132;19;20019;-62
2024/01/15 00:19:07;;;;;;;15.63;2.95;;;1.50;99.90;;;;;;7381088;19;20018;-70
2024/01/15 00:21:35;;;;;;;10.75;2.58;;;1.60;99.90;;;;;;7382331;19;20022;-69
2024/01/15 00:24:02;;;;;;;13.48;3.47;;;1.60;99.90;;;;;;7379217;19;20022;-70
2024/01/15 00:26:28;;;;;;;12.90;2.67;;;1.60;99.90;;;;;;7384533;19;20419;-70
2024/01/15 00:28:55;;;;;;;13.52;2.35;;;1.60;99.90;;;;;;7378399;19;20491;-70
2024/01/15 00:31:21;;;;;;;16.45;2.35;;;1.60;99.90;;;;;;7378850;19;20132;-69
2024/01/15 00:33:48;;;;;;;15.18;2.28;;;1.60;99.90;;;;;;7375539;19;20022;-69
2024/01/15 00:36:16;;;;;;;11.75;2.05;;;1.60;99.90;;;;;;7381420;19;20038;-69
2024/01/15 00:38:44;;;;;;;16.95;2.63;;;1.60;99.90;;;;;;7381290;19;20022;-69
2024/01/15 00:41:10;;;;;;;17.00;2.85;;;1.60;99.90;;;;;;7382844;19;20033;-70
2024/01/15 00:43:36;;;;;;;13.55;1.90;;;1.60;99.90;;;;;;7379967;19;20852;-70
2024/01/15 00:46:04;;;;;;;11.93;1.88;;;1.60;99.90;;;;;;7382687;19;20010;-69
2024/01/15 00:48:30;;;;;;;10.32;2.25;;;1.60;99.90;;;;;;7381756;19;20011;-69
2024/01/15 00:50:57;;;;;;;10.63;2.28;;;1.70;99.90;;;;;;7383875;19;20030;-68
2024/01/15 00:53:23;;;;;;;12.10;2.47;;;1.80;99.90;;;;;;7380604;19;20373;-62
2024/01/15 00:55:50;;;;;;;11.75;2.35;;;1.80;99.90;;;;;;7380393;19;20066;-63
2024/01/15 00:58:16;;;;;;;10.27;2.20;;;1.90;99.90;;;;;;7375022;19;20021;-62
2024/01/15 01:00:42;;;;;;;11.95;2.40;;;1.90;99.90;;;;;;7378349;19;20036;-62
2024/01/15 01:03:09;;;;;;;17.25;2.58;;;2.00;99.90;;;;;;7377964;19;20014;-62
2024/01/15 01:05:35;;;;;;;11.93;2.08;;;2.00;99.90;;;;;;7377179;19;20022;-63
2024/01/15 01:08:02;;;;;;;15.05;2.72;;;2.00;99.90;;;;;;7377894;19;20026;-62
2024/01/15 01:10:29;;;;;;;18.63;2.30;;;2.10;99.90;;;;;;7377820;19;20014;-62
2024/01/15 01:13:15;;;;;;;12.77;2.67;;;2.10;99.90;;;;;;7375048;19;20018;-62
2024/01/15 01:15:41;;;;;;;12.90;2.15;;;2.20;99.90;;;;;;7374310;19;20025;-62
2024/01/15 01:18:08;;;;;;;14.50;2.83;;;2.20;99.90;;;;;;7374541;19;20042;-62
2024/01/15 01:20:35;;;;;;;10.68;3.03;;;2.30;99.90;;;;;;7368666;19;20018;-62
2024/01/15 01:23:02;;;;;;;11.68;2.13;;;2.20;99.90;;;;;;7375854;19;20015;-63
2024/01/15 01:25:29;;;;;;;10.05;2.20;;;2.20;99.90;;;;;;7384086;19;20388;-68
2024/01/15 01:27:55;;;;;;;9.98;2.28;;;2.20;99.90;;;;;;7393342;19;20034;-67
2024/01/15 01:30:22;;;;;;;11.93;2.30;;;2.20;99.90;;;;;;7394549;19;20018;-67
2024/01/15 01:32:48;;;;;;;13.82;2.78;;;2.10;99.90;;;;;;7390264;19;20018;-66
2024/01/15 01:35:14;;;;;;;15.93;3.03;;;2.00;99.90;;;;;;7389815;19;20018;-67
2024/01/15 01:37:40;;;;;;;17.13;2.90;;;2.00;99.90;;;;;;7389654;19;20022;-66
2024/01/15 01:40:08;;;;;;;15.02;2.30;;;2.00;99.90;;;;;;7392460;19;20014;-66
2024/01/15 01:42:37;;;;;;;10.32;1.77;;;2.00;99.90;;;;;;7388992;19;20017;-67
2024/01/15 01:45:10;;;;;;;7.65;1.30;;;1.90;99.90;;;;;;7393713;19;20396;-68
2024/01/15 01:47:38;;;;;;;7.15;1.17;;;1.90;99.90;;;;;;7390823;19;20017;-68
2024/01/15 01:50:05;;;;;;;5.85;1.30;;;1.90;99.90;;;;;;7386003;19;20062;-68
2024/01/15 01:52:32;;;;;;;6.63;1.27;;;1.80;99.90;;;;;;7387233;19;21213;-67
2024/01/15 01:55:01;;;;;;;2.30;0.82;;;1.80;99.90;;;;;;7385274;19;20026;-67
2024/01/15 01:57:28;;;;;;;5.40;0.77;;;1.80;99.90;;;;;;7386268;19;20084;-67
2024/01/15 01:59:56;;;;;;;4.35;0.80;;;1.80;99.90;;;;;;7387006;19;20411;-67
2024/01/15 02:02:23;;;;;;;5.25;1.90;;;1.70;99.90;;;;;;7386982;19;20018;-67
2024/01/15 02:04:50;;;;;;;8.23;1.17;;;1.70;99.90;;;;;;7388679;19;20022;-67
2024/01/15 02:07:36;;;;;;;6.22;0.85;;;1.70;99.90;;;;;;7389141;19;20018;-67
2024/01/15 02:10:03;;;;;;;4.15;0.98;;;1.70;99.90;;;;;;7390616;19;20932;-67
2024/01/15 02:12:30;;;;;;;5.93;1.02;;;1.70;99.90;;;;;;7390962;19;20010;-66
2024/01/15 02:14:56;;;;;;;5.38;0.82;;;1.70;99.90;;;;;;7391413;19;20333;-66
2024/01/15 02:17:23;;;;;;;5.18;1.45;;;1.70;99.90;;;;;;7389116;19;20022;-66
2024/01/15 02:19:50;;;;;;;6.55;1.48;;;1.70;99.90;;;;;;7392043;19;20006;-67
2024/01/15 02:22:16;;;;;;;7.43;1.25;;;1.70;99.90;;;;;;7389642;19;20045;-66
2024/01/15 02:24:42;;;;;;;15.23;2.78;;;1.60;99.90;;;;;;7389350;19;20011;-67
2024/01/15 02:27:09;;;;;;;11.40;2.33;;;1.60;99.90;;;;;;7390658;19;20018;-67
2024/01/15 02:29:36;;;;;;;9.77;1.58;;;1.70;99.90;;;;;;7387455;19;20010;-66
2024/01/15 02:32:06;;;;;;;10.82;1.85;;;1.70;99.90;;;;;;7388426;19;20082;-68
2024/01/15 02:34:55;;;;;;;8.25;2.08;;;1.80;99.90;;;;;;7387619;19;20086;-67
2024/01/15 02:37:42;;;;;;;14.15;2.13;;;1.80;99.90;;;;;;7363969;19;20780;-62
2024/01/15 02:40:08;;;;;;;13.07;2.03;;;1.90;99.90;;;;;;7371123;19;20015;-61
2024/01/15 02:42:35;;;;;;;9.40;1.60;;;2.00;99.90;;;;;;7370330;19;20018;-62
2024/01/15 02:45:22;;;;;;;9.45;1.73;;;1.90;99.90;;;;;;7371079;19;20019;-62
2024/01/15 02:47:50;;;;;;;10.25;1.92;;;1.90;99.90;;;;;;7373546;19;20511;-62
2024/01/15 02:50:16;;;;;;;10.25;2.75;;;1.90;99.90;;;;;;7367711;19;20070;-62
2024/01/15 02:52:42;;;;;;;5.65;1.20;;;1.90;99.90;;;;;;7372453;19;20021;-62
2024/01/15 02:55:09;;;;;;;7.78;1.50;;;1.90;99.90;;;;;;7370911;19;20018;-62
2024/01/15 02:57:35;;;;;;;9.70;1.33;;;1.90;99.90;;;;;;7369331;19;21677;-61
2024/01/15 03:00:01;;;;;;;10.98;2.15;;;1.90;99.90;;;;;;7361269;19;20115;-62
2024/01/15 03:02:31;;;;;;;9.55;1.55;;;2.00;99.90;;;;;;7370421;19;20018;-62
2024/01/15 03:04:57;;;;;;;13.07;2.00;;;2.10;99.90;;;;;;7371490;19;20110;-62
2024/01/15 03:07:24;;;;;;;9.18;1.45;;;2.10;99.90;;;;;;7368147;19;20078;-62
2024/01/15 03:09:50;;;;;;;9.70;1.90;;;2.10;99.90;;;;;;7368810;19;20011;-62
2024/01/15 03:12:18;;;;;;;18.65;2.53;;;2.10;99.90;;;;;;7381306;19;20006;-68
2024/01/15 03:14:44;;;;;;;15.95;2.50;;;2.10;99.90;;;;;;7387262;19;20018;-67
2024/01/15 03:17:12;;;;;;;13.90;1.80;;;2.10;99.90;;;;;;7382831;19;20901;-66
2024/01/15 03:19:38;;;;;;;13.18;1.73;;;2.10;99.90;;;;;;7381541;19;20022;-67
2024/01/15 03:22:24;;;;;;;11.30;1.83;;;2.10;99.90;;;;;;7380389;19;20015;-67
2024/01/15 03:24:52;;;;;;;18.15;2.28;;;2.10;99.90;;;;;;7382663;19;20876;-67
2024/01/15 03:27:19;;;;;;;13.05;1.95;;;2.00;99.90;;;;;;7376852;19;20022;-68
2024/01/15 03:29:45;;;;;;;15.38;2.75;;;1.90;99.90;;;;;;7377821;19;20482;-67
2024/01/15 03:32:11;;;;;;;12.10;1.98;;;1.90;99.90;;;;;;7376327;19;20018;-68
2024/01/15 03:34:38;;;;;;;7.25;1.70;;;1.80;99.90;;;;;;7372904;19;20011;-62
2024/01/15 03:37:04;;;;;;;10.52;2.10;;;1.90;99.90;;;;;;7369090;19;20042;-62
2024/01/15 03:39:31;;;;;;;10.30;1.77;;;1.80;99.90;;;;;;7367330;19;20011;-62
2024/01/15 03:41:58;;;;;;;9.85;2.17;;;1.80;99.90;;;;;;7365986;19;20078;-61
2024/01/15 03:44:24;;;;;;;10.15;1.73;;;1.80;99.90;;;;;;7371453;19;20899;-62
2024/01/15 03:46:51;;;;;;;9.60;2.22;;;1.90;99.90;;;;;;7366734;19;20045;-62
2024/01/15 03:49:18;;;;;;;12.63;2.00;;;2.00;99.90;;;;;;7369789;19;20010;-62
2024/01/15 03:51:47;;;;;;;12.32;2.20;;;2.00;99.90;;;;;;7379306;19;20026;-67
2024/01/15 03:54:15;;;;;;;8.02;1.90;;;2.10;99.90;;;;;;7377817;19;20039;-67
2024/01/15 03:56:41;;;;;;;8.60;1.25;;;2.10;99.90;;;;;;7376805;19;20908;-67
2024/01/15 03:59:07;;;;;;;9.10;1.38;;;2.10;99.90;;;;;;7380414;19;20025;-66
2024/01/15 04:01:34;;;;;;;7.13;1.50;;;2.10;99.90;;;;;;7381154;19;20014;-67
2024/01/15 04:04:00;;;;;;;8.75;1.80;;;2.10;99.90;;;;;;7383660;19;20471;-67
2024/01/15 04:06:27;;;;;;;12.73;1.77;;;2.10;99.90;;;;;;7381513;19;20018;-62
2024/01/15 04:08:53;;;;;;;6.85;1.70;;;2.00;99.90;;;;;;7375851;19;20074;-61
2024/01/15 04:11:19;;;;;;;10.35;1.80;;;2.00;99.90;;;;;;7377546;19;20479;-62
2024/01/15 04:13:46;;;;;;;10.38;1.80;;;1.90;99.90;;;;;;7378870;19;20657;-68
2024/01/15 04:16:13;;;;;;;8.68;2.00;;;1.90;99.90;;;;;;7376145;19;20048;-62
2024/01/15 04:18:39;;;;;;;8.60;1.75;;;1.90;99.90;;;;;;7370602;19;20026;-61
2024/01/15 04:21:06;;;;;;;17.67;2.00;;;1.90;99.90;;;;;;7375635;19;20018;-67
2024/01/15 04:23:33;;;;;;;7.28;2.00;;;1.90;99.90;;;;;;7384128;19;20026;-67
2024/01/15 04:25:59;;;;;;;10.90;2.35;;;1.90;99.90;;;;;;7387792;19;20014;-67
2024/01/15 04:28:26;;;;;;;11.52;2.30;;;1.90;99.90;;;;;;7383229;19;20582;-67
2024/01/15 04:30:56;;;;;;;9.77;1.55;;;1.90;99.90;;;;;;7378226;19;20014;-62
2024/01/15 04:33:22;;;;;;;11.80;2.03;;;1.90;99.90;;;;;;7378011;19;20035;-61
2024/01/15 04:35:49;;;;;;;12.10;2.42;;;1.80;99.90;;;;;;7375116;19;20011;-67
2024/01/15 04:38:15;;;;;;;12.63;2.30;;;1.80;99.90;;;;;;7379045;19;20014;-67
2024/01/15 04:40:44;;;;;;;10.57;1.70;;;1.90;99.90;;;;;;7375639;19;20022;-67
2024/01/15 04:43:11;;;;;;;10.77;2.47;;;1.90;99.90;;;;;;7377709;19;20022;-67
2024/01/15 04:45:38;;;;;;;13.63;2.25;;;1.90;99.90;;;;;;7378820;19;20030;-69
2024/01/15 04:48:04;;;;;;;12.65;2.20;;;2.00;99.90;;;;;;7379029;19;20020;-67
2024/01/15 04:50:51;;;;;;;13.98;2.33;;;2.00;99.90;;;;;;7379653;19;20014;-67
2024/01/15 04:53:18;;;;;;;11.20;2.15;;;2.00;99.90;;;;;;7378937;19;20820;-68
2024/01/15 04:55:44;;;;;;;14.30;2.42;;;2.10;99.90;;;;;;7383425;19;20056;-68
2024/01/15 04:58:10;;;;;;;17.55;3.20;;;2.10;99.90;;;;;;7381046;19;20074;-68
2024/01/15 05:00:37;;;;;;;10.90;1.95;;;2.10;99.90;;;;;;7383807;19;20025;-67
2024/01/15 05:03:23;;;;;;;14.55;2.70;;;2.10;99.90;;;;;;7383237;19;20049;-67
2024/01/15 05:05:49;;;;;;;13.65;1.95;;;2.10;99.90;;;;;;7379805;19;20023;-67
2024/01/15 05:08:15;;;;;;;7.65;1.98;;;2.20;99.90;;;;;;7385021;19;20017;-67
2024/01/15 05:10:42;;;;;;;8.15;2.17;;;2.10;99.90;;;;;;7379240;19;20356;-61
2024/01/15 05:13:08;;;;;;;13.65;1.92;;;2.00;99.90;;;;;;7371368;19;20082;-61
2024/01/15 05:15:34;;;;;;;12.00;2.20;;;2.00;99.90;;;;;;7370151;19;20034;-61
2024/01/15 05:18:00;;;;;;;10.82;1.95;;;2.00;99.90;;;;;;7374410;19;20026;-61
2024/01/15 05:20:46;;;;;;;10.35;1.80;;;1.90;99.90;;;;;;7372991;19;20479;-67
2024/01/15 05:23:14;;;;;;;10.63;1.95;;;1.80;99.90;;;;;;7379674;19;20014;-67
2024/01/15 05:25:41;;;;;;;10.10;2.13;;;1.70;99.90;;;;;;7378831;19;20019;-67
2024/01/15 05:28:07;;;;;;;8.13;1.67;;;1.70;99.90;;;;;;7378601;19;20472;-67
2024/01/15 05:30:34;;;;;;;10.15;1.90;;;1.60;99.90;;;;;;7376476;19;20706;-67
2024/01/15 05:33:01;;;;;;;8.45;1.65;;;1.50;99.90;;;;;;7376641;19;20027;-67
2024/01/15 05:35:27;;;;;;;11.20;2.35;;;1.50;99.90;;;;;;7373617;19;20022;-67
2024/01/15 05:37:53;;;;;;;12.30;2.05;;;1.50;99.90;;;;;;7374236;19;20024;-61
2024/01/15 05:40:19;;;;;;;11.57;1.95;;;1.50;99.90;;;;;;7373795;19;20486;-61
2024/01/15 05:42:45;;;;;;;15.18;2.58;;;1.60;99.90;;;;;;7374338;19;20370;-61
2024/01/15 05:45:12;;;;;;;14.68;2.65;;;1.60;99.90;;;;;;7369010;19;20026;-61
2024/01/15 05:47:38;;;;;;;9.90;2.58;;;1.70;99.90;;;;;;7376538;19;20018;-62
2024/01/15 05:50:24;;;;;;;13.13;2.45;;;1.70;99.90;;;;;;7371891;19;20380;-62
2024/01/15 05:52:51;;;;;;;13.70;2.00;;;1.60;99.90;;;;;;7377231;19;20478;-66
2024/01/15 05:55:18;;;;;;;13.93;1.95;;;1.60;99.90;;;;;;7376217;19;20022;-66
2024/01/15 05:57:45;;;;;;;13.77;2.38;;;1.50;99.90;;;;;;7372478;19;20382;-66
2024/01/15 06:00:33;;;;;;;15.85;2.20;;;1.50;99.90;;;;;;7371936;19;20014;-62
2024/01/15 06:02:59;;;;;;;12.68;2.72;;;1.50;99.90;;;;;;7370727;19;20014;-67
2024/01/15 06:05:25;;;;;;;16.23;3.05;;;1.40;99.90;;;;;;7369885;19;20623;-62
2024/01/15 06:07:52;;;;;;;11.02;2.15;;;1.40;99.90;;;;;;7370766;19;20022;-66
2024/01/15 06:10:18;;;;;;;10.85;2.53;;;1.40;99.90;;;;;;7370431;19;20023;-67
2024/01/15 06:12:44;;;;;;;14.48;2.38;;;1.30;99.90;;;;;;7367038;19;20325;-66
2024/01/15 06:15:10;;;;;;;11.52;2.05;;;1.30;99.90;;;;;;7371305;19;20018;-67
2024/01/15 06:17:37;;;;;;;13.30;2.92;;;1.20;99.90;;;;;;7368532;19;20023;-69
2024/01/15 06:20:04;;;;;;;13.57;2.60;;;1.20;99.90;;;;;;7364751;19;20066;-67
2024/01/15 06:22:30;;;;;;;15.15;2.65;;;1.20;99.90;;;;;;7366080;19;20052;-62
2024/01/15 06:24:56;;;;;;;11.38;2.22;;;1.30;99.90;;;;;;7368466;19;20786;-62
2024/01/15 06:27:22;;;;;;;14.93;2.95;;;1.30;99.90;;;;;;7369652;19;20018;-67
2024/01/15 06:29:49;;;;;;;15.77;2.20;;;1.30;99.90;;;;;;7370808;19;20019;-62
2024/01/15 06:32:15;;;;;;;14.60;2.38;;;1.40;99.90;;;;;;7371872;19;20018;-62
2024/01/15 06:34:41;;;;;;;16.70;2.40;;;1.30;99.90;;;;;;7375584;19;20022;-62
2024/01/15 06:37:08;;;;;;;14.50;2.50;;;1.40;99.90;;;;;;7369628;19;20513;-62
2024/01/15 06:39:34;;;;;;;14.95;2.80;;;1.30;99.90;;;;;;7373928;19;20078;-62
2024/01/15 06:42:00;;;;;;;14.27;2.17;;;1.30;99.90;;;;;;7369406;19;20468;-67
2024/01/15 06:44:27;;;;;;;12.27;2.17;;;1.30;99.90;;;;;;7372805;19;20015;-67
2024/01/15 06:46:57;;;;;;;9.25;2.03;;;1.20;99.90;;;;;;7369678;19;20038;-67
2024/01/15 06:49:23;;;;;;;13.40;2.20;;;1.20;99.90;;;;;;7372374;19;20175;-67
2024/01/15 06:51:49;;;;;;;18.35;2.65;;;1.20;99.90;;;;;;7370772;19;20018;-67
2024/01/15 06:54:16;;;;;;;13.65;2.28;;;1.00;99.90;;;;;;7371126;19;20046;-68
2024/01/15 06:56:43;;;;;;;11.05;2.42;;;1.10;99.90;;;;;;7370811;19;20014;-62
2024/01/15 06:59:09;;;;;;;11.30;1.90;;;1.10;99.90;;;;;;7370726;19;20663;-67
2024/01/15 07:01:35;;;;;;;16.85;2.90;;;1.10;99.90;;;;;;7372598;19;20023;-66
2024/01/15 07:04:01;;;;;;;16.63;2.50;;;1.10;99.90;;;;;;7370737;19;20018;-63
2024/01/15 07:06:27;;;;;;;16.13;3.10;;;1.00;99.90;;;;;;7368425;19;20042;-63
2024/01/15 07:08:54;;;;;;;11.25;2.67;;;1.00;99.90;;;;;;7374584;19;20018;-66
2024/01/15 07:11:20;;;;;;;13.85;2.50;;;1.10;99.90;;;;;;7378364;19;20526;-66
2024/01/15 07:13:46;;;;;;;15.02;2.53;;;1.10;99.90;;;;;;7376615;19;20018;-66
2024/01/15 07:16:13;;;;;;;16.83;2.40;;;1.20;99.90;;;;;;7374602;19;20019;-66
2024/01/15 07:18:39;;;;;;;14.52;2.30;;;1.30;99.90;;;;;;7371617;19;20014;-66
2024/01/15 07:21:05;;;;;;;9.88;2.00;;;1.30;99.90;;;;;;7376304;19;20029;-66
2024/01/15 07:23:32;;;;;;;11.32;2.25;;;1.40;99.90;;;;;;7375044;19;20090;-66
2024/01/15 07:25:58;;;;;;;15.48;2.45;;;1.40;99.90;;;;;;7379820;19;20027;-66
2024/01/15 07:28:24;;;;;;;15.38;2.75;;;1.40;99.90;;;;;;7376992;19;20022;-67
2024/01/15 07:30:52;;;;;;;12.63;2.42;;;1.30;99.90;;;;;;7376035;19;20042;-63
2024/01/15 07:33:18;;;;;;;10.50;2.17;;;1.30;99.90;;;;;;7369610;19;20022;-63
2024/01/15 07:35:44;;;;;;;16.40;2.42;;;1.20;99.90;;;;;;7366397;19;20018;-63
2024/01/15 07:38:11;;;;;;;12.73;2.60;;;1.20;99.90;;;;;;7374258;19;20081;-63
2024/01/15 07:40:37;;;;;;;15.10;2.33;;;1.20;99.90;;;;;;7377627;19;20086;-63
2024/01/15 07:43:04;;;;;;;11.52;2.20;;;1.10;99.90;;;;;;7378892;19;20037;-63
2024/01/15 07:45:30;;;;;;;12.50;2.33;;;1.10;99.90;;;;;;7376268;19;20029;-63
2024/01/15 07:47:58;;;;;;;14.75;2.45;;;1.10;99.90;;;;;;7379785;19;20065;-63
2024/01/15 07:50:24;;;;;;;14.32;2.17;;;1.00;99.90;;;;;;7382170;19;20013;-66
2024/01/15 07:52:50;;;;;;;15.25;2.15;;;1.00;99.90;;;;;;7384007;19;20044;-66
2024/01/15 07:55:18;;;;;;;10.43;2.45;;;1.00;99.90;;;;;;7393127;19;20490;-66
2024/01/15 07:57:44;;;;;;;14.85;2.97;;;1.00;99.90;;;;;;7391417;19;20019;-66
2024/01/15 08:00:13;;;;;;;15.88;2.40;;;1.00;99.90;;;;;;7392288;19;20112;-66
2024/01/15 08:02:39;;;;;;;17.63;2.60;;;1.00;99.90;;;;;;7385201;19;20506;-69
2024/01/15 08:05:06;;;;;;;12.30;2.10;;;1.00;99.90;;;;;;7384570;19;20031;-66
2024/01/15 08:07:36;;;;;;;17.20;3.03;;;1.10;99.90;;;;;;7392956;19;20380;-66
2024/01/15 08:10:03;;;;;;;10.95;2.28;;;1.10;99.90;;;;;;7391688;19;20018;-67
2024/01/15 08:12:29;;;;;;;17.42;2.53;;;1.10;99.90;;;;;;7393400;19;20015;-66
2024/01/15 08:14:55;;;;;;;14.25;2.45;;;1.10;99.90;;;;;;7394587;19;20585;-66
2024/01/15 08:17:21;;;;;;;16.30;2.30;;;1.10;99.90;;;;;;7394545;19;20085;-66
2024/01/15 08:19:48;;;;;;;12.57;2.70;;;1.10;99.90;;;;;;7386365;19;20483;-63
2024/01/15 08:22:34;;;;;;;13.93;2.10;;;1.10;99.90;;;;;;7372475;19;20022;-63
2024/01/15 08:25:00;;;;;;;16.27;2.25;;;1.10;99.90;;;;;;7377596;19;20049;-62
2024/01/15 08:27:27;;;;;;;10.30;2.20;;;1.20;99.90;;;;;;7373418;19;20018;-62
2024/01/15 08:29:54;;;;;;;7.35;1.83;;;1.30;99.90;;;;;;7376555;19;20436;-62
2024/01/15 08:32:20;;;;;;;10.52;2.10;;;1.40;99.90;;;;;;7385191;19;20015;-66
2024/01/15 08:34:48;;;;;;;14.57;2.88;;;1.60;99.90;;;;;;7383267;19;20029;-62
2024/01/15 08:37:15;;;;;;;11.85;3.28;;;1.60;99.90;;;;;;7375750;19;20877;-62
2024/01/15 08:39:41;;;;;;;8.60;2.15;;;1.60;99.90;;;;;;7375230;19;20015;-64
2024/01/15 08:42:07;;;;;;;10.23;2.05;;;1.70;99.90;;;;;;7378348;19;20103;-64
2024/01/15 08:44:33;;;;;;;13.68;2.47;;;1.70;99.90;;;;;;7375410;19;20026;-64
2024/01/15 08:47:00;;;;;;;9.20;2.00;;;1.80;99.90;;;;;;7379125;19;20022;-68
2024/01/15 08:49:26;;;;;;;13.13;2.30;;;1.90;99.90;;;;;;7395101;19;20010;-68
2024/01/15 08:51:52;;;;;;;11.85;3.08;;;2.10;99.90;;;;;;7395798;19;20048;-68
2024/01/15 08:54:18;;;;;;;8.77;2.78;;;2.40;99.90;;;;;;7397035;19;20470;-69
2024/01/15 08:56:45;;;;;;;13.00;2.00;;;2.50;99.90;;;;;;7393928;19;20022;-68
2024/01/15 08:59:12;;;;;;;14.30;2.38;;;2.70;99.90;;;;;;7392372;19;20015;-68
2024/01/15 09:01:39;;;;;;;9.82;2.30;;;2.60;99.90;;;;;;7383979;19;20018;-70
2024/01/15 09:04:05;;;;;;;14.13;2.80;;;2.30;99.90;;;;;;7384169;19;20578;-70
2024/01/15 09:06:31;;;;;;;13.60;3.38;;;2.60;99.90;;;;;;7382791;19;20038;-68
2024/01/15 09:08:58;;;;;;;16.83;2.85;;;2.70;99.90;;;;;;7386894;19;20070;-67
2024/01/15 09:11:45;;;;;;;13.18;2.60;;;3.10;99.90;;;;;;7390733;19;20479;-68
2024/01/15 09:14:11;;;;;;;16.20;2.25;;;3.20;99.90;;;;;;7388353;19;20022;-68
2024/01/15 09:16:38;;;;;;;11.20;2.40;;;3.40;99.90;;;;;;7382780;19;20337;-68
2024/01/15 09:19:04;;;;;;;14.43;2.63;;;3.30;99.90;;;;;;7383876;19;20019;-68
2024/01/15 09:21:31;;;;;;;13.27;2.28;;;3.10;99.90;;;;;;7384170;19;20829;-66
2024/01/15 09:23:58;;;;;;;16.50;2.42;;;3.00;99.90;;;;;;7378619;19;20088;-63
2024/01/15 09:26:24;;;;;;;13.23;2.58;;;2.90;99.90;;;;;;7373786;19;20015;-62
2024/01/15 09:28:51;;;;;;;7.93;1.90;;;2.90;99.90;;;;;;7370954;19;20035;-63
2024/01/15 09:31:19;;;;;;;15.63;2.35;;;3.10;99.90;;;;;;7375589;19;20046;-62
2024/01/15 09:33:46;;;;;;;11.63;2.20;;;3.10;99.90;;;;;;7374181;19;20038;-63
2024/01/15 09:36:12;;;;;;;12.48;2.70;;;3.10;99.90;;;;;;7376897;19;20026;-67
2024/01/15 09:38:41;;;;;;;13.93;2.63;;;3.30;99.90;;;;;;7374937;19;20025;-67
2024/01/15 09:41:07;;;;;;;9.63;2.30;;;3.30;99.90;;;;;;7383482;19;20196;-67
2024/01/15 09:43:34;;;;;;;16.20;2.67;;;3.30;99.90;;;;;;7382966;19;20025;-67
2024/01/15 09:46:01;;;;;;;9.18;1.90;;;3.20;99.90;;;;;;7382900;19;20015;-68
2024/01/15 09:48:27;;;;;;;7.45;1.80;;;3.00;99.90;;;;;;7385365;19;20400;-67
2024/01/15 09:50:54;;;;;;;12.27;2.60;;;3.10;99.90;;;;;;7378227;19;20093;-68
2024/01/15 09:53:20;;;;;;;10.38;2.60;;;3.30;99.90;;;;;;7378691;19;20403;-66
2024/01/15 09:55:49;;;;;;;8.88;1.63;;;3.60;99.90;;;;;;7377359;19;20022;-65
2024/01/15 09:58:17;;;;;;;8.93;2.30;;;4.00;99.90;;;;;;7376856;19;20488;-66
2024/01/15 10:00:44;;;;;;;9.38;2.45;;;4.10;99.90;;;;;;7375176;19;20827;-65
2024/01/15 10:03:11;;;;;;;10.77;2.17;;;4.40;99.90;;;;;;7373439;19;20022;-63
2024/01/15 10:05:38;;;;;;;10.77;2.75;;;4.40;99.90;;;;;;7373598;19;20062;-63
2024/01/15 10:08:05;;;;;;;11.95;2.13;;;4.70;99.90;;;;;;7373999;19;20014;-64
2024/01/15 10:10:31;;;;;;;8.27;1.95;;;4.30;99.90;;;;;;7373537;19;20030;-65
2024/01/15 10:12:59;;;;;;;11.48;2.78;;;4.40;99.90;;;;;;7372616;19;20019;-66
2024/01/15 10:15:26;;;;;;;6.38;1.90;;;4.40;99.90;;;;;;7383043;19;20019;-66
2024/01/15 10:17:52;;;;;;;13.63;2.28;;;4.10;99.90;;;;;;7377569;19;20018;-65
2024/01/15 10:20:22;;;;;;;13.77;2.47;;;4.00;99.90;;;;;;7378520;19;20766;-65
2024/01/15 10:22:49;;;;;;;13.25;2.03;;;4.00;99.90;;;;;;7381006;19;20026;-66
2024/01/15 10:25:16;;;;;;;9.35;2.25;;;4.00;99.90;;;;;;7380172;19;20015;-66
2024/01/15 10:27:42;;;;;;;10.40;2.20;;;4.10;99.90;;;;;;7371295;19;20030;-65
2024/01/15 10:30:10;;;;;;;12.90;2.72;;;4.10;99.90;;;;;;7369434;19;20645;-65
2024/01/15 10:32:36;;;;;;;11.55;1.75;;;4.00;99.90;;;;;;7374294;19;20082;-63
2024/01/15 10:35:04;;;;;;;9.00;1.85;;;3.90;99.90;;;;;;7379681;19;20018;-66
2024/01/15 10:37:33;;;;;;;6.55;1.40;;;3.70;99.90;;;;;;7376404;19;20031;-63
2024/01/15 10:40:06;;;;;;;7.90;1.50;;;3.80;99.90;;;;;;7367394;19;20018;-63
2024/01/15 10:42:32;;;;;;;7.07;1.52;;;3.90;99.90;;;;;;7379112;19;20011;-62
2024/01/15 10:44:59;;;;;;;5.65;1.20;;;3.90;99.90;;;;;;7371462;19;20015;-65
2024/01/15 10:47:25;;;;;;;8.77;2.03;;;3.90;99.90;;;;;;7377983;19;20051;-68
2024/01/15 10:50:12;;;;;;;9.65;2.33;;;3.60;99.90;;;;;;7380207;19;20021;-66
2024/01/15 10:52:43;;;;;;;6.72;1.55;;;3.50;99.90;;;;;;7373202;19;20841;-63
2024/01/15 10:55:10;;;;;;;7.47;1.23;;;3.30;99.90;;;;;;7373936;19;20018;-63
2024/01/15 10:57:37;;;;;;;9.48;1.70;;;3.30;99.90;;;;;;7369260;19;20102;-63
2024/01/15 11:00:05;;;;;;;9.60;1.85;;;3.40;99.90;;;;;;7372036;19;20094;-62
2024/01/15 11:02:34;;;;;;;11.43;1.65;;;3.40;99.90;;;;;;7374932;19;20583;-67
2024/01/15 11:05:00;;;;;;;11.20;1.88;;;3.30;99.90;;;;;;7378883;19;20021;-63
2024/01/15 11:07:29;;;;;;;8.63;1.48;;;3.30;99.90;;;;;;7376320;19;20042;-64
2024/01/15 11:09:57;;;;;;;8.00;1.23;;;3.50;99.90;;;;;;7376844;19;20010;-67
2024/01/15 11:12:24;;;;;;;8.55;1.42;;;3.30;99.90;;;;;;7376590;19;20583;-67
2024/01/15 11:14:50;;;;;;;6.63;2.08;;;3.40;99.90;;;;;;7378364;19;20483;-67
2024/01/15 11:17:18;;;;;;;5.63;0.88;;;3.40;99.90;;;;;;7371965;19;20031;-64
2024/01/15 11:19:52;;;;;;;4.47;0.80;;;3.30;99.90;;;;;;7373560;19;20475;-67
2024/01/15 11:22:30;;;;;;;3.40;0.75;;;3.40;99.90;;;;;;7374036;19;20597;-63
2024/01/15 11:25:20;;;;;;;5.70;1.10;;;3.30;99.90;;;;;;7375244;19;20504;-67
2024/01/15 11:27:51;;;;;;;4.78;0.98;;;3.20;99.90;;;;;;7374086;19;20324;-67
2024/01/15 11:30:19;;;;;;;3.42;0.95;;;3.20;99.90;;;;;;7379735;19;20623;-69
2024/01/15 11:33:07;;;;;;;2.72;1.83;;;3.30;99.90;;;;;;7377442;19;20021;-67
2024/01/15 11:35:53;;;;;;;2.92;0.80;;;3.50;99.90;;;;;;7375456;19;20015;-69
2024/01/15 11:38:29;;;;;;;3.13;0.80;;;3.60;99.90;;;;;;7373424;19;20110;-65
2024/01/15 11:40:55;;;;;;;4.03;1.05;;;3.60;99.90;;;;;;7374801;19;20379;-69
2024/01/15 11:43:23;;;;;;;6.85;1.10;;;3.60;99.90;;;;;;7380483;19;20046;-66
2024/01/15 11:45:52;;;;;;;6.78;1.33;;;3.50;99.90;;;;;;7372128;19;20019;-68
2024/01/15 11:48:18;;;;;;;3.08;1.10;;;3.40;99.90;;;;;;7378400;19;20027;-70
2024/01/15 11:50:46;;;;;;;9.25;1.48;;;3.40;99.90;;;;;;7379977;19;20010;-69
2024/01/15 11:53:18;;;;;;;4.85;1.48;;;3.30;99.90;;;;;;7380019;19;20033;-69
2024/01/15 11:55:45;;;;;;;5.18;0.90;;;3.30;99.90;;;;;;7371984;19;20045;-66
2024/01/15 11:58:12;;;;;;;8.60;1.92;;;3.30;99.90;;;;;;7369960;19;20018;-65
2024/01/15 12:00:59;;;;;;;5.13;0.98;;;3.30;99.90;;;;;;7370186;19;20011;-66
2024/01/15 12:03:26;;;;;;;7.82;2.35;;;3.30;99.90;;;;;;7372645;19;20018;-66
2024/01/15 12:05:52;;;;;;;8.73;1.20;;;3.30;99.90;;;;;;7372871;19;20018;-65
2024/01/15 12:08:22;;;;;;;5.00;1.27;;;3.30;99.90;;;;;;7375274;19;20482;-68
2024/01/15 12:10:49;;;;;;;8.38;1.20;;;3.20;99.90;;;;;;7374947;19;20053;-66
2024/01/15 12:13:17;;;;;;;5.90;1.35;;;3.00;99.90;;;;;;7373393;19;20015;-66
2024/01/15 12:15:45;;;;;;;5.32;0.85;;;2.80;99.90;;;;;;7372479;19;20488;-66
2024/01/15 12:18:14;;;;;;;2.47;0.85;;;2.40;99.90;;;;;;7373878;19;20018;-66
2024/01/15 12:20:42;;;;;;;4.75;1.05;;;2.20;99.90;;;;;;7370427;19;20018;-69
2024/01/15 12:23:10;;;;;;;2.33;0.80;;;1.90;99.90;;;;;;7373254;19;20018;-68
2024/01/15 12:25:37;;;;;;;2.95;1.15;;;1.80;99.90;;;;;;7377157;19;20021;-66
2024/01/15 12:28:03;;;;;;;5.65;1.30;;;1.80;99.90;;;;;;7376185;19;20022;-65
2024/01/15 12:30:33;;;;;;;6.00;1.17;;;1.80;99.90;;;;;;7368312;19;20081;-66
2024/01/15 12:33:06;;;;;;;1.63;0.85;;;1.80;99.90;;;;;;7374826;19;20014;-66
2024/01/15 12:35:36;;;;;;;2.85;0.80;;;1.80;99.90;;;;;;7377037;19;20014;-66
2024/01/15 12:38:02;;;;;;;6.75;0.90;;;1.80;99.90;;;;;;7379516;19;20877;-66
2024/01/15 12:40:29;;;;;;;4.97;1.20;;;1.90;99.90;;;;;;7376951;19;20026;-66
2024/01/15 12:42:55;;;;;;;3.75;1.38;;;1.90;99.90;;;;;;7376091;19;20018;-66
2024/01/15 12:45:22;;;;;;;8.35;1.23;;;2.00;99.90;;;;;;7379898;19;20482;-66
2024/01/15 12:47:48;;;;;;;6.72;1.42;;;2.00;99.90;;;;;;7377915;19;20055;-67
2024/01/15 12:50:35;;;;;;;5.57;0.93;;;2.00;99.90;;;;;;7375943;19;20018;-65
2024/01/15 12:53:02;;;;;;;4.15;1.20;;;2.00;99.90;;;;;;7375074;19;20022;-65
2024/01/15 12:55:28;;;;;;;2.47;0.85;;;2.10;99.90;;;;;;7376441;19;20086;-66